createdAt,value
2023-04-26T00:02:21.108Z,2.85
2023-04-26T00:06:08.966Z,3.20
2023-04-26T00:09:52.930Z,2.88
2023-04-26T00:13:34.734Z,2.30
2023-04-26T00:17:16.609Z,1.95
2023-04-26T00:20:58.787Z,3.05
2023-04-26T00:24:40.619Z,2.90
2023-04-26T00:28:22.586Z,2.20
2023-04-26T00:32:04.761Z,2.97
2023-04-26T00:35:46.741Z,2.47
2023-04-26T00:39:28.946Z,2.72
2023-04-26T00:43:11.395Z,3.80
2023-04-26T00:46:53.942Z,2.58
2023-04-26T00:50:35.801Z,2.67
2023-04-26T00:54:19.401Z,2.75
2023-04-26T00:58:01.391Z,2.35
2023-04-26T01:01:43.344Z,2.88
2023-04-26T01:05:25.732Z,2.80
2023-04-26T01:09:09.815Z,2.60
2023-04-26T01:12:51.958Z,2.45
2023-04-26T01:16:35.186Z,2.38
2023-04-26T01:20:16.976Z,2.33
2023-04-26T01:23:58.773Z,3.55
2023-04-26T01:27:41.803Z,3.15
2023-04-26T01:31:23.687Z,2.85
2023-04-26T01:35:05.974Z,3.08
2023-04-26T01:38:47.754Z,3.22
2023-04-26T01:42:29.584Z,2.63
2023-04-26T01:46:11.533Z,2.75
2023-04-26T01:49:53.645Z,3.35
2023-04-26T01:53:35.453Z,3.00
2023-04-26T01:57:17.264Z,3.80
2023-04-26T02:01:06.783Z,2.92
2023-04-26T02:04:48.650Z,2.88
2023-04-26T02:08:30.588Z,3.35
2023-04-26T02:12:12.644Z,2.97
2023-04-26T02:15:54.642Z,2.55
2023-04-26T02:19:36.577Z,2.92
2023-04-26T02:23:18.417Z,3.25
2023-04-26T02:27:03.849Z,3.00
2023-04-26T02:30:45.764Z,3.55
2023-04-26T02:34:27.562Z,3.15
2023-04-26T02:38:09.416Z,3.47
2023-04-26T02:41:51.184Z,2.60
2023-04-26T02:45:32.983Z,2.75
2023-04-26T02:49:14.762Z,2.67
2023-04-26T02:52:56.685Z,3.08
2023-04-26T02:56:38.515Z,3.28
2023-04-26T03:00:20.621Z,4.25
2023-04-26T03:04:02.517Z,3.70
2023-04-26T03:07:44.386Z,2.53
2023-04-26T03:11:26.474Z,2.75
2023-04-26T03:15:08.788Z,3.58
2023-04-26T03:18:51.070Z,3.35
2023-04-26T03:22:33.086Z,3.33
2023-04-26T03:26:14.862Z,2.65
2023-04-26T03:29:56.725Z,2.70
2023-04-26T03:33:38.504Z,2.97
2023-04-26T03:37:20.377Z,3.42
2023-04-26T03:41:02.152Z,3.30
2023-04-26T03:44:43.964Z,2.85
2023-04-26T03:48:25.895Z,3.17
2023-04-26T03:52:07.717Z,3.45
2023-04-26T03:55:49.516Z,3.40
2023-04-26T03:59:31.422Z,3.63
2023-04-26T04:03:13.395Z,3.08
2023-04-26T04:06:56.085Z,3.30
2023-04-26T04:10:38.099Z,3.35
2023-04-26T04:14:19.893Z,3.47
2023-04-26T04:18:01.851Z,3.80
2023-04-26T04:21:43.766Z,3.88
2023-04-26T04:25:25.627Z,3.72
2023-04-26T04:29:10.645Z,3.13
2023-04-26T04:32:52.565Z,3.40
2023-04-26T04:36:34.448Z,3.45
2023-04-26T04:40:16.358Z,2.60
2023-04-26T04:43:58.166Z,3.00
2023-04-26T04:47:40.018Z,3.15
2023-04-26T04:51:21.870Z,2.78
2023-04-26T04:55:04.916Z,2.85
2023-04-26T04:58:47.794Z,2.25
2023-04-26T05:02:29.642Z,2.75
2023-04-26T05:06:11.648Z,3.17
2023-04-26T05:09:53.484Z,2.88
2023-04-26T05:13:35.424Z,2.85
2023-04-26T05:17:17.271Z,2.80
2023-04-26T05:20:59.104Z,3.08
2023-04-26T05:24:41.390Z,2.65
2023-04-26T05:28:23.422Z,3.20
2023-04-26T05:32:05.843Z,2.95
2023-04-26T05:35:47.759Z,2.38
2023-04-26T05:39:30.062Z,2.75
2023-04-26T05:43:12.028Z,3.40
2023-04-26T05:46:54.065Z,2.13
2023-04-26T05:50:38.252Z,3.20
2023-04-26T05:54:22.197Z,3.08
2023-04-26T05:58:05.095Z,2.72
2023-04-26T06:01:46.996Z,2.70
2023-04-26T06:05:29.016Z,2.35
2023-04-26T06:09:11.289Z,2.55
2023-04-26T06:12:54.034Z,3.05
2023-04-26T06:16:36.060Z,3.03
2023-04-26T06:20:18.061Z,3.28
2023-04-26T06:23:59.860Z,2.92
2023-04-26T06:27:41.714Z,2.15
2023-04-26T06:31:23.612Z,2.35
2023-04-26T06:35:05.720Z,2.63
2023-04-26T06:38:47.646Z,2.65
2023-04-26T06:42:29.482Z,2.92
2023-04-26T06:46:11.351Z,2.50
2023-04-26T06:49:53.168Z,2.30
2023-04-26T06:53:38.251Z,2.95
2023-04-26T06:57:20.373Z,3.17
2023-04-26T07:01:02.592Z,2.30
2023-04-26T07:04:44.589Z,2.70
2023-04-26T07:08:26.910Z,3.40
2023-04-26T07:12:11.061Z,3.13
2023-04-26T07:15:52.908Z,2.95
2023-04-26T07:19:34.807Z,2.55
2023-04-26T07:23:16.622Z,2.75
2023-04-26T07:26:58.501Z,2.53
2023-04-26T07:30:40.639Z,2.47
2023-04-26T07:34:22.587Z,2.65
2023-04-26T07:38:05.554Z,2.20
2023-04-26T07:41:47.595Z,2.97
2023-04-26T07:45:32.261Z,3.13
2023-04-26T07:49:14.059Z,3.00
2023-04-26T07:52:55.847Z,2.67
2023-04-26T07:56:37.642Z,3.05
2023-04-26T08:00:19.993Z,3.30
2023-04-26T08:04:02.198Z,2.55
2023-04-26T08:07:44.502Z,3.75
2023-04-26T08:11:26.738Z,2.70
2023-04-26T08:15:09.222Z,3.28
2023-04-26T08:18:51.132Z,2.50
2023-04-26T08:22:32.906Z,3.63
2023-04-26T08:26:14.746Z,3.50
2023-04-26T08:29:56.957Z,2.47
2023-04-26T08:33:38.794Z,3.50
2023-04-26T08:37:20.647Z,3.03
2023-04-26T08:41:05.081Z,3.10
2023-04-26T08:44:46.924Z,3.60
2023-04-26T08:48:34.232Z,2.88
2023-04-26T08:52:17.277Z,3.42
2023-04-26T08:56:01.177Z,3.78
2023-04-26T08:59:44.321Z,3.40
2023-04-26T09:03:26.797Z,3.80
2023-04-26T09:07:09.876Z,3.03
2023-04-26T09:10:51.967Z,3.15
2023-04-26T09:14:34.149Z,3.28
2023-04-26T09:18:19.612Z,3.58
2023-04-26T09:22:01.549Z,3.88
2023-04-26T09:25:43.404Z,3.63
2023-04-26T09:29:25.236Z,4.38
2023-04-26T09:33:09.453Z,4.10
2023-04-26T09:36:53.750Z,4.90
2023-04-26T09:40:38.251Z,4.28
2023-04-26T09:44:26.392Z,5.03
2023-04-26T09:48:26.342Z,4.75
2023-04-26T09:52:08.293Z,6.00
2023-04-26T09:55:50.380Z,4.47
2023-04-26T09:59:55.028Z,6.97
2023-04-26T10:03:38.549Z,5.43
2023-04-26T10:07:22.733Z,6.13
2023-04-26T10:11:05.348Z,4.50
2023-04-26T10:14:48.409Z,3.80
2023-04-26T10:18:33.927Z,5.70
2023-04-26T10:22:25.408Z,4.95
2023-04-26T10:26:07.666Z,4.60
2023-04-26T10:29:55.783Z,4.95
2023-04-26T10:33:38.118Z,4.93
2023-04-26T10:37:20.279Z,4.10
2023-04-26T10:41:34.139Z,4.22
2023-04-26T10:45:30.410Z,3.78
2023-04-26T10:49:24.320Z,4.40
2023-04-26T10:53:08.318Z,4.15
2023-04-26T10:56:53.009Z,5.00
2023-04-26T11:00:34.948Z,5.22
2023-04-26T11:04:17.474Z,4.70
2023-04-26T11:08:06.561Z,4.30
2023-04-26T11:11:53.566Z,4.07
2023-04-26T11:19:17.223Z,4.70
2023-04-26T11:22:59.694Z,4.03
2023-04-26T11:26:41.695Z,3.90
2023-04-26T11:30:23.567Z,3.90
2023-04-26T11:34:05.570Z,4.00
2023-04-26T11:37:49.431Z,4.50
2023-04-26T11:41:31.228Z,4.40
2023-04-26T11:45:16.550Z,4.50
2023-04-26T11:48:58.725Z,4.90
2023-04-26T11:52:41.752Z,4.25
2023-04-26T11:56:25.845Z,3.83
2023-04-26T12:00:11.518Z,3.90
2023-04-26T12:03:55.568Z,4.32
2023-04-26T12:07:38.155Z,4.38
2023-04-26T12:11:20.180Z,5.03
2023-04-26T12:15:08.899Z,4.95
2023-04-26T12:18:52.398Z,4.95
2023-04-26T12:22:34.191Z,4.60
2023-04-26T12:26:16.493Z,4.65
2023-04-26T12:29:58.329Z,3.90
2023-04-26T12:33:40.292Z,4.60
2023-04-26T12:37:22.194Z,4.18
2023-04-26T12:41:04.514Z,3.90
2023-04-26T12:44:46.391Z,4.22
2023-04-26T12:48:28.968Z,4.15
2023-04-26T12:52:11.152Z,4.88
2023-04-26T12:55:53.307Z,3.88
2023-04-26T12:59:35.391Z,4.53
2023-04-26T13:03:17.932Z,4.55
2023-04-26T13:06:59.976Z,4.90
2023-04-26T13:10:41.843Z,4.05
2023-04-26T13:14:24.157Z,4.65
2023-04-26T13:18:06.588Z,5.15
2023-04-26T13:21:48.410Z,4.40
2023-04-26T13:25:30.264Z,4.35
2023-04-26T13:29:12.070Z,4.95
2023-04-26T13:32:54.090Z,3.78
2023-04-26T13:36:36.072Z,3.85
2023-04-26T13:40:18.721Z,4.80
2023-04-26T13:44:04.537Z,4.88
2023-04-26T13:47:46.731Z,4.95
2023-04-26T13:51:30.643Z,4.82
2023-04-26T13:55:12.609Z,4.28
2023-04-26T13:58:57.465Z,4.28
2023-04-26T14:02:39.555Z,4.85
2023-04-26T14:06:21.688Z,4.22
2023-04-26T14:10:03.629Z,4.97
2023-04-26T14:13:45.801Z,4.60
2023-04-26T14:17:29.154Z,4.78
2023-04-26T14:21:14.057Z,4.28
2023-04-26T14:24:56.147Z,4.30
2023-04-26T14:28:38.237Z,4.47
2023-04-26T14:32:20.049Z,3.78
2023-04-26T14:36:02.228Z,4.38
2023-04-26T14:39:44.068Z,4.68
2023-04-26T14:43:26.029Z,4.22
2023-04-26T14:47:07.855Z,3.88
2023-04-26T14:50:49.677Z,3.78
2023-04-26T14:54:31.833Z,5.18
2023-04-26T14:58:13.720Z,4.32
2023-04-26T15:01:56.151Z,3.97
2023-04-26T15:05:38.082Z,4.13
2023-04-26T15:09:19.956Z,3.80
2023-04-26T15:13:01.938Z,4.32
2023-04-26T15:16:45.212Z,4.35
2023-04-26T15:20:27.257Z,4.00
2023-04-26T15:24:09.281Z,3.88
2023-04-26T15:27:51.093Z,3.60
2023-04-26T15:31:34.157Z,4.90
2023-04-26T15:35:16.757Z,3.90
2023-04-26T15:38:58.552Z,3.85
2023-04-26T15:42:40.681Z,4.20
2023-04-26T15:46:23.139Z,3.33
2023-04-26T15:50:05.713Z,3.30
2023-04-26T15:53:47.592Z,3.80
2023-04-26T15:57:30.102Z,3.45
2023-04-26T16:01:12.362Z,3.97
2023-04-26T16:04:54.471Z,3.58
2023-04-26T16:08:40.375Z,3.67
2023-04-26T16:12:22.637Z,3.40
2023-04-26T16:16:10.887Z,4.13
2023-04-26T16:19:52.800Z,4.32
2023-04-26T16:23:34.619Z,3.67
2023-04-26T16:27:17.018Z,4.20
2023-04-26T16:30:58.928Z,3.65
2023-04-26T16:34:41.270Z,4.72
2023-04-26T16:38:23.881Z,4.07
2023-04-26T16:42:05.709Z,3.72
2023-04-26T16:45:47.782Z,4.03
2023-04-26T16:49:29.701Z,4.70
2023-04-26T16:53:11.737Z,4.55
2023-04-26T16:56:53.941Z,4.82
2023-04-26T17:00:36.356Z,4.28
2023-04-26T17:04:18.503Z,3.63
2023-04-26T17:08:00.638Z,3.33
2023-04-26T17:11:43.568Z,3.42
2023-04-26T17:15:25.598Z,4.60
2023-04-26T17:19:07.418Z,4.10
2023-04-26T17:22:49.241Z,3.50
2023-04-26T17:26:31.090Z,3.85
2023-04-26T17:30:13.889Z,4.10
2023-04-26T17:33:55.748Z,3.97
2023-04-26T17:37:37.898Z,4.05
2023-04-26T17:41:21.523Z,3.97
2023-04-26T17:45:05.181Z,4.18
2023-04-26T17:48:46.983Z,3.88
2023-04-26T17:52:28.790Z,3.22
2023-04-26T17:56:10.658Z,3.50
2023-04-26T17:59:52.730Z,3.08
2023-04-26T18:03:35.836Z,3.47
2023-04-26T18:07:17.895Z,3.28
2023-04-26T18:10:59.688Z,3.17
2023-04-26T18:14:45.091Z,3.75
2023-04-26T18:18:27.985Z,3.13
2023-04-26T18:22:10.126Z,3.15
2023-04-26T18:25:51.943Z,3.22
2023-04-26T18:29:33.836Z,3.17
2023-04-26T18:33:16.381Z,3.30
2023-04-26T18:36:58.258Z,3.22
2023-04-26T18:40:44.006Z,3.78
2023-04-26T18:44:26.120Z,2.80
2023-04-26T18:48:08.406Z,3.65
2023-04-26T18:51:50.514Z,3.28
2023-04-26T18:55:32.510Z,3.13
2023-04-26T18:59:14.491Z,3.05
2023-04-26T19:02:56.465Z,3.33
2023-04-26T19:06:41.826Z,2.65
2023-04-26T19:10:24.395Z,2.83
2023-04-26T19:14:06.766Z,2.95
2023-04-26T19:17:50.375Z,3.35
2023-04-26T19:21:32.515Z,3.00
2023-04-26T19:25:14.767Z,3.03
2023-04-26T19:28:56.722Z,3.58
2023-04-26T19:32:38.642Z,3.22
2023-04-26T19:36:20.656Z,3.50
2023-04-26T19:40:05.991Z,2.97
2023-04-26T19:43:47.859Z,4.03
2023-04-26T19:47:29.690Z,3.65
2023-04-26T19:51:20.464Z,3.58
2023-04-26T19:55:02.363Z,4.32
2023-04-26T19:58:44.257Z,6.63
2023-04-26T20:02:26.175Z,5.25
2023-04-26T20:06:09.714Z,6.18
2023-04-26T20:09:51.611Z,5.90
2023-04-26T20:13:33.689Z,5.85
2023-04-26T20:17:15.614Z,4.68
2023-04-26T20:20:57.456Z,4.28
2023-04-26T20:24:39.322Z,3.75
2023-04-26T20:28:21.194Z,3.75
2023-04-26T20:32:03.523Z,3.95
2023-04-26T20:35:45.666Z,4.40
2023-04-26T20:39:28.391Z,3.97
2023-04-26T20:43:12.011Z,4.15
2023-04-26T20:46:53.944Z,3.92
2023-04-26T20:50:36.904Z,4.55
2023-04-26T20:54:19.305Z,3.53
2023-04-26T20:58:01.357Z,3.80
2023-04-26T21:01:43.500Z,3.38
2023-04-26T21:05:25.403Z,3.58
2023-04-26T21:09:07.529Z,3.03
2023-04-26T21:12:49.555Z,3.85
2023-04-26T21:16:31.350Z,3.40
2023-04-26T21:20:13.185Z,3.25
2023-04-26T21:23:55.196Z,3.60
2023-04-26T21:27:37.355Z,3.35
2023-04-26T21:31:19.328Z,3.58
2023-04-26T21:35:01.279Z,3.83
2023-04-26T21:38:43.092Z,3.65
2023-04-26T21:42:24.941Z,3.72
2023-04-26T21:46:08.111Z,4.30
2023-04-26T21:49:51.371Z,4.18
2023-04-26T21:53:33.188Z,3.70
2023-04-26T21:57:15.009Z,3.08
2023-04-26T22:01:07.131Z,3.67
2023-04-26T22:04:48.938Z,3.75
2023-04-26T22:08:31.104Z,3.97
2023-04-26T22:12:12.906Z,3.53
2023-04-26T22:15:54.751Z,3.28
2023-04-26T22:19:36.655Z,3.42
2023-04-26T22:23:18.442Z,4.88
2023-04-26T22:27:00.589Z,3.53
2023-04-26T22:30:42.372Z,3.58
2023-04-26T22:34:24.244Z,4.25
2023-04-26T22:38:06.141Z,4.03
2023-04-26T22:41:47.921Z,5.85
2023-04-26T22:45:29.748Z,4.75
2023-04-26T22:49:11.828Z,4.95
2023-04-26T22:52:53.898Z,5.20
2023-04-26T22:56:35.708Z,4.38
2023-04-26T23:00:17.690Z,4.68
2023-04-26T23:03:59.481Z,3.90
2023-04-26T23:07:41.297Z,4.47
2023-04-26T23:11:23.104Z,4.32
2023-04-26T23:15:05.972Z,4.30
2023-04-26T23:18:47.811Z,4.40
2023-04-26T23:22:29.583Z,4.72
2023-04-26T23:26:11.401Z,5.35
2023-04-26T23:29:53.309Z,5.00
2023-04-26T23:33:35.242Z,4.90
2023-04-26T23:37:17.326Z,5.03
2023-04-26T23:40:59.140Z,5.22
2023-04-26T23:44:41.402Z,4.40
2023-04-26T23:48:23.173Z,5.30
2023-04-26T23:52:05.178Z,4.88
2023-04-26T23:55:47.334Z,4.70
2023-04-26T23:59:29.107Z,4.95
